Time;durP1;ratioP1;P1;durP2;ratioP2;P2;SDS_P1;SDS_P2;PMS_P1;PMS_P2;Temp;Humidity;BMP_temperature;BMP_pressure;BME280_temperature;BME280_humidity;BME280_pressure;Samples;Min_cycle;Max_cycle;Signal;HPM_P1;HPM_P2
2021/12/11 00:00:44;;;;;;;2.73;2.50;;;;;;;;;;5043838;28;20198;-96
2021/12/11 00:03:15;;;;;;;2.83;2.60;;;;;;;;;;5036375;28;20179;-96
2021/12/11 00:05:44;;;;;;;2.17;1.83;;;;;;;;;;5038771;28;20246;-96
2021/12/11 00:08:12;;;;;;;2.10;1.90;;;;;;;;;;5039683;28;20207;-96
2021/12/11 00:10:46;;;;;;;8.43;5.90;;;;;;;;;;5040616;28;20199;-96
2021/12/11 00:13:18;;;;;;;4.00;3.53;;;;;;;;;;5041365;28;20244;-95
2021/12/11 00:15:48;;;;;;;3.23;2.13;;;;;;;;;;5042108;28;20230;-96
2021/12/11 00:18:19;;;;;;;3.77;1.87;;;;;;;;;;5037413;28;20341;-94
2021/12/11 00:20:55;;;;;;;4.13;3.60;;;;;;;;;;5037026;28;20206;-96
2021/12/11 00:23:29;;;;;;;4.13;3.23;;;;;;;;;;5040071;28;20221;-95
2021/12/11 00:25:58;;;;;;;4.17;2.13;;;;;;;;;;5040415;28;20182;-96
2021/12/11 00:28:26;;;;;;;2.07;1.63;;;;;;;;;;5042284;28;20806;-96
2021/12/11 00:30:54;;;;;;;1.70;1.60;;;;;;;;;;5038574;28;20249;-96
2021/12/11 00:33:24;;;;;;;2.00;1.57;;;;;;;;;;5033994;28;20206;-96
2021/12/11 00:35:52;;;;;;;2.53;2.17;;;;;;;;;;5033866;28;20598;-95
2021/12/11 00:38:23;;;;;;;3.17;2.27;;;;;;;;;;5033511;28;20230;-95
2021/12/11 00:40:51;;;;;;;2.93;2.00;;;;;;;;;;5033711;28;20703;-96
2021/12/11 00:43:28;;;;;;;2.10;1.90;;;;;;;;;;5033678;28;20235;-95
2021/12/11 00:45:57;;;;;;;2.50;2.30;;;;;;;;;;5033979;28;20278;-96
2021/12/11 00:48:27;;;;;;;2.93;2.50;;;;;;;;;;5033973;28;20202;-96
2021/12/11 00:50:58;;;;;;;3.33;3.03;;;;;;;;;;5033471;28;20203;-96
2021/12/11 00:53:28;;;;;;;2.07;1.87;;;;;;;;;;5033478;28;20241;-96
2021/12/11 00:55:58;;;;;;;38.57;24.77;;;;;;;;;;5033372;28;20309;-94
2021/12/11 00:58:29;;;;;;;16.73;13.20;;;;;;;;;;5025347;28;20214;-96
2021/12/11 01:00:58;;;;;;;7.70;6.83;;;;;;;;;;5033379;28;20225;-96
2021/12/11 01:03:30;;;;;;;8.73;6.43;;;;;;;;;;5033299;28;20199;-96
2021/12/11 01:06:01;;;;;;;3.77;3.13;;;;;;;;;;5034008;28;20285;-96
2021/12/11 01:08:32;;;;;;;2.77;2.53;;;;;;;;;;5033653;28;20207;-95
2021/12/11 01:11:05;;;;;;;1.33;1.27;;;;;;;;;;5033216;28;20289;-96
2021/12/11 01:13:37;;;;;;;1.93;1.70;;;;;;;;;;5034436;28;20391;-95
2021/12/11 01:16:11;;;;;;;4.93;3.00;;;;;;;;;;5034591;28;20242;-95
2021/12/11 01:18:42;;;;;;;2.80;2.60;;;;;;;;;;5034225;28;20662;-96
2021/12/11 01:21:42;;;;;;;2.33;2.13;;;;;;;;;;5033312;28;20207;-95
2021/12/11 01:24:26;;;;;;;1.93;1.70;;;;;;;;;;5033013;28;20269;-95
2021/12/11 01:26:55;;;;;;;1.67;1.57;;;;;;;;;;5032941;28;20202;-96
2021/12/11 01:29:25;;;;;;;1.80;1.53;;;;;;;;;;5033270;28;20204;-95
2021/12/11 01:31:53;;;;;;;1.70;1.60;;;;;;;;;;5034330;28;20648;-96
2021/12/11 01:34:21;;;;;;;12.13;9.07;;;;;;;;;;5032927;28;20285;-96
2021/12/11 01:36:49;;;;;;;25.33;17.13;;;;;;;;;;5032734;28;20223;-96
2021/12/11 01:39:19;;;;;;;4.03;3.00;;;;;;;;;;5032992;28;20667;-96
2021/12/11 01:41:48;;;;;;;1.70;1.60;;;;;;;;;;5032746;28;20301;-96
2021/12/11 01:44:19;;;;;;;1.20;1.10;;;;;;;;;;5033045;28;20215;-96
2021/12/11 01:46:48;;;;;;;79.93;54.83;;;;;;;;;;5034267;28;20634;-96
2021/12/11 01:49:20;;;;;;;9.00;7.70;;;;;;;;;;5035537;28;20203;-96
2021/12/11 01:51:52;;;;;;;10.57;7.77;;;;;;;;;;5034706;28;20225;-96
2021/12/11 01:54:23;;;;;;;5.83;4.47;;;;;;;;;;5036128;28;20209;-96
2021/12/11 01:56:58;;;;;;;4.47;3.93;;;;;;;;;;5036155;28;20741;-96
2021/12/11 01:59:28;;;;;;;21.50;13.83;;;;;;;;;;5036283;28;20198;-95
2021/12/11 02:02:02;;;;;;;60.37;44.57;;;;;;;;;;5034750;28;20199;-95
2021/12/11 02:04:30;;;;;;;19.20;14.77;;;;;;;;;;5034221;28;20209;-95
2021/12/11 02:07:02;;;;;;;13.20;10.47;;;;;;;;;;5035540;28;20206;-96
2021/12/11 02:09:32;;;;;;;9.87;8.07;;;;;;;;;;5034559;28;20244;-96
2021/12/11 02:12:07;;;;;;;3.10;2.90;;;;;;;;;;5033706;28;20206;-96
2021/12/11 02:14:40;;;;;;;1.40;1.30;;;;;;;;;;5033805;28;20263;-96
2021/12/11 02:17:16;;;;;;;4.47;4.07;;;;;;;;;;5034170;28;20605;-96
2021/12/11 02:19:46;;;;;;;3.37;3.07;;;;;;;;;;5035191;28;20197;-96
2021/12/11 02:22:18;;;;;;;3.87;3.13;;;;;;;;;;5037382;28;20199;-95
2021/12/11 02:24:48;;;;;;;4.87;3.57;;;;;;;;;;5038811;28;20754;-95
2021/12/11 02:27:19;;;;;;;2.90;2.60;;;;;;;;;;5038958;28;20214;-96
2021/12/11 02:29:50;;;;;;;4.57;3.20;;;;;;;;;;5039237;28;20226;-95
2021/12/11 02:32:27;;;;;;;3.07;2.70;;;;;;;;;;5039647;28;20206;-95
2021/12/11 02:34:59;;;;;;;1.97;1.87;;;;;;;;;;5039384;28;20206;-95
2021/12/11 02:37:36;;;;;;;2.23;2.03;;;;;;;;;;5038629;28;20231;-95
2021/12/11 02:40:11;;;;;;;4.27;2.33;;;;;;;;;;5038662;28;20678;-96
2021/12/11 02:42:43;;;;;;;3.53;1.83;;;;;;;;;;5040404;28;20645;-95
2021/12/11 02:45:16;;;;;;;2.20;2.00;;;;;;;;;;5037964;28;20198;-95
2021/12/11 02:47:47;;;;;;;2.97;2.53;;;;;;;;;;5037585;28;20225;-95
2021/12/11 02:50:17;;;;;;;24.73;16.10;;;;;;;;;;5036683;28;20211;-95
2021/12/11 02:52:48;;;;;;;17.60;11.90;;;;;;;;;;5036480;28;20226;-94
2021/12/11 02:55:19;;;;;;;50.03;31.60;;;;;;;;;;5035896;28;20199;-94
2021/12/11 02:57:50;;;;;;;19.50;15.33;;;;;;;;;;5035529;28;20265;-94
2021/12/11 03:00:21;;;;;;;12.23;9.70;;;;;;;;;;5035930;28;20659;-95
2021/12/11 03:02:59;;;;;;;8.37;5.67;;;;;;;;;;5036115;28;20637;-95
2021/12/11 03:05:35;;;;;;;5.20;4.17;;;;;;;;;;5036401;28;20183;-95
2021/12/11 03:08:05;;;;;;;4.33;3.90;;;;;;;;;;5037632;28;20178;-95
2021/12/11 03:10:33;;;;;;;3.67;2.77;;;;;;;;;;5037388;28;20190;-95
2021/12/11 03:13:01;;;;;;;2.17;1.87;;;;;;;;;;5036997;28;20229;-95
2021/12/11 03:15:28;;;;;;;6.40;1.40;;;;;;;;;;5035571;28;20686;-95
2021/12/11 03:17:56;;;;;;;2.87;1.63;;;;;;;;;;5035577;28;20771;-94
2021/12/11 03:20:24;;;;;;;2.83;2.50;;;;;;;;;;5035575;28;20198;-95
2021/12/11 03:22:51;;;;;;;3.90;3.50;;;;;;;;;;5035541;28;20213;-95
2021/12/11 03:25:22;;;;;;;3.20;2.90;;;;;;;;;;5035282;28;20249;-95
2021/12/11 03:27:50;;;;;;;5.70;4.30;;;;;;;;;;5035343;28;20209;-95
2021/12/11 03:30:21;;;;;;;4.87;4.40;;;;;;;;;;5035341;28;20245;-95
2021/12/11 03:32:49;;;;;;;3.47;2.50;;;;;;;;;;5034188;28;20209;-95
2021/12/11 03:35:17;;;;;;;2.53;1.83;;;;;;;;;;5035039;28;20257;-95
2021/12/11 03:37:44;;;;;;;2.30;2.10;;;;;;;;;;5036729;28;20309;-95
2021/12/11 03:40:13;;;;;;;4.97;2.27;;;;;;;;;;5037381;28;20600;-95
2021/12/11 03:42:44;;;;;;;3.70;2.90;;;;;;;;;;5040122;28;20230;-96
2021/12/11 03:45:15;;;;;;;2.90;2.57;;;;;;;;;;5038767;28;20640;-95
2021/12/11 03:47:45;;;;;;;5.23;4.13;;;;;;;;;;5037082;28;20182;-95
2021/12/11 03:50:15;;;;;;;7.20;4.30;;;;;;;;;;5039392;28;20183;-95
2021/12/11 03:52:43;;;;;;;4.83;4.30;;;;;;;;;;5039038;28;20663;-95
2021/12/11 03:55:12;;;;;;;5.90;3.90;;;;;;;;;;5039001;28;20202;-96
2021/12/11 03:57:41;;;;;;;3.87;2.43;;;;;;;;;;5037096;28;20226;-95
2021/12/11 04:00:17;;;;;;;7.70;4.50;;;;;;;;;;5037888;28;20206;-95
2021/12/11 04:02:47;;;;;;;9.00;6.03;;;;;;;;;;5038197;28;20221;-95
2021/12/11 04:05:14;;;;;;;3.80;2.93;;;;;;;;;;5038035;28;20195;-95
2021/12/11 04:07:45;;;;;;;7.97;5.67;;;;;;;;;;5036929;28;20195;-95
2021/12/11 04:10:15;;;;;;;4.23;3.83;;;;;;;;;;5038025;28;20644;-96
2021/12/11 04:12:43;;;;;;;8.07;4.50;;;;;;;;;;5036902;28;20636;-95
2021/12/11 04:15:13;;;;;;;15.07;13.47;;;;;;;;;;5036277;28;20191;-96
2021/12/11 04:17:40;;;;;;;5.17;4.13;;;;;;;;;;5035579;28;20223;-95
2021/12/11 04:20:12;;;;;;;7.20;6.50;;;;;;;;;;5036624;28;20222;-95
2021/12/11 04:22:40;;;;;;;9.53;8.63;;;;;;;;;;5035893;28;20180;-96
2021/12/11 04:25:09;;;;;;;3.73;2.80;;;;;;;;;;5035086;28;20230;-95
2021/12/11 04:27:37;;;;;;;2.13;2.00;;;;;;;;;;5037447;28;20195;-95
2021/12/11 04:30:05;;;;;;;3.93;3.53;;;;;;;;;;5038753;28;20191;-96
2021/12/11 04:32:34;;;;;;;10.97;9.87;;;;;;;;;;5035512;28;20199;-95
2021/12/11 04:35:03;;;;;;;9.73;8.77;;;;;;;;;;5034542;28;20226;-96
2021/12/11 04:37:32;;;;;;;4.10;2.90;;;;;;;;;;5035742;28;20296;-95
2021/12/11 04:40:03;;;;;;;2.60;2.40;;;;;;;;;;5035801;28;20203;-95
2021/12/11 04:42:46;;;;;;;3.73;3.33;;;;;;;;;;5036468;28;20235;-96
2021/12/11 04:45:18;;;;;;;12.97;11.63;;;;;;;;;;5036040;28;20277;-95
2021/12/11 04:47:52;;;;;;;5.47;4.80;;;;;;;;;;5039318;28;20187;-95
2021/12/11 04:50:29;;;;;;;3.43;3.10;;;;;;;;;;5037922;28;20195;-96
2021/12/11 04:52:58;;;;;;;2.57;2.37;;;;;;;;;;5037944;28;20190;-95
2021/12/11 04:55:41;;;;;;;20.63;15.07;;;;;;;;;;5037178;28;20226;-96
2021/12/11 04:58:28;;;;;;;9.07;7.60;;;;;;;;;;5038732;28;20412;-96
2021/12/11 05:01:09;;;;;;;22.60;16.20;;;;;;;;;;5038100;28;20206;-96
2021/12/11 05:06:35;;;;;;;5.50;3.60;;;;;;;;;;5036718;28;20701;-96
2021/12/11 05:11:54;;;;;;;12.00;8.03;;;;;;;;;;5038945;28;20262;-96
2021/12/11 05:14:24;;;;;;;11.03;9.03;;;;;;;;;;5040203;28;20285;-96
2021/12/11 05:16:52;;;;;;;8.07;5.67;;;;;;;;;;5039979;28;20206;-96
2021/12/11 05:19:21;;;;;;;11.83;8.00;;;;;;;;;;5038308;28;20215;-96
2021/12/11 05:21:50;;;;;;;22.93;14.97;;;;;;;;;;5037474;28;20224;-96
2021/12/11 05:24:17;;;;;;;19.63;12.60;;;;;;;;;;5039357;28;20258;-96
2021/12/11 05:26:45;;;;;;;21.73;11.73;;;;;;;;;;5035581;28;20205;-96
2021/12/11 05:29:14;;;;;;;20.20;13.50;;;;;;;;;;5036759;28;20198;-96
2021/12/11 05:31:42;;;;;;;13.30;9.10;;;;;;;;;;5035765;28;20261;-96
2021/12/11 05:34:09;;;;;;;14.90;12.53;;;;;;;;;;5037512;28;20202;-96
2021/12/11 05:36:40;;;;;;;10.70;8.23;;;;;;;;;;5035981;28;20643;-96
2021/12/11 05:39:10;;;;;;;7.83;5.07;;;;;;;;;;5035618;28;20226;-96
2021/12/11 05:41:39;;;;;;;16.63;11.70;;;;;;;;;;5035526;28;20264;-95
2021/12/11 05:44:07;;;;;;;8.97;8.17;;;;;;;;;;5036206;28;20202;-96
2021/12/11 05:46:35;;;;;;;8.00;4.70;;;;;;;;;;5035391;28;20766;-96
2021/12/11 05:49:04;;;;;;;3.40;2.83;;;;;;;;;;5035207;28;20634;-96
2021/12/11 05:51:37;;;;;;;4.03;3.73;;;;;;;;;;5037055;28;20229;-96
2021/12/11 05:54:08;;;;;;;3.70;3.13;;;;;;;;;;5038118;28;20202;-96
2021/12/11 05:56:37;;;;;;;4.63;3.23;;;;;;;;;;5040249;28;20257;-96
2021/12/11 05:59:06;;;;;;;25.93;14.60;;;;;;;;;;5040782;28;20245;-96
2021/12/11 06:01:37;;;;;;;36.77;20.70;;;;;;;;;;5041248;28;20202;-96
2021/12/11 06:04:07;;;;;;;24.03;15.37;;;;;;;;;;5040528;28;20197;-96
2021/12/11 06:06:37;;;;;;;13.13;9.73;;;;;;;;;;5040049;28;20214;-95
2021/12/11 06:09:08;;;;;;;14.73;8.63;;;;;;;;;;5051625;28;20228;-95
2021/12/11 06:11:35;;;;;;;13.10;7.83;;;;;;;;;;5058280;28;20224;-96
2021/12/11 06:14:03;;;;;;;4.00;3.60;;;;;;;;;;5057440;28;20197;-95
2021/12/11 06:16:31;;;;;;;3.40;2.20;;;;;;;;;;5056428;28;20654;-95
2021/12/11 06:19:02;;;;;;;2.60;2.17;;;;;;;;;;5056580;28;20724;-96
2021/12/11 06:21:30;;;;;;;3.67;2.83;;;;;;;;;;5056748;28;20206;-96
2021/12/11 06:23:58;;;;;;;7.00;5.50;;;;;;;;;;5056374;28;20256;-96
2021/12/11 06:26:27;;;;;;;5.83;5.27;;;;;;;;;;5048326;28;20198;-96
2021/12/11 06:28:54;;;;;;;8.60;6.57;;;;;;;;;;5057219;28;20225;-95
2021/12/11 06:31:22;;;;;;;5.63;4.33;;;;;;;;;;5056171;28;20202;-96
2021/12/11 06:33:51;;;;;;;10.20;7.10;;;;;;;;;;5056224;28;20255;-96
2021/12/11 06:36:21;;;;;;;5.47;4.63;;;;;;;;;;5055905;28;20247;-96
2021/12/11 06:38:52;;;;;;;7.50;5.97;;;;;;;;;;5055830;28;20303;-96
2021/12/11 06:41:22;;;;;;;4.37;3.33;;;;;;;;;;5056256;28;20352;-95
2021/12/11 06:43:51;;;;;;;6.67;5.10;;;;;;;;;;5055903;28;20249;-96
2021/12/11 06:46:19;;;;;;;9.43;4.43;;;;;;;;;;5055813;28;20198;-96
2021/12/11 06:48:47;;;;;;;11.97;7.47;;;;;;;;;;5055890;28;20204;-96
2021/12/11 06:51:14;;;;;;;15.23;10.43;;;;;;;;;;5055571;28;20289;-96
2021/12/11 06:53:44;;;;;;;5.43;3.50;;;;;;;;;;5058078;28;20623;-96
2021/12/11 06:56:13;;;;;;;4.47;4.00;;;;;;;;;;5067004;28;20198;-96
2021/12/11 06:58:41;;;;;;;18.87;10.97;;;;;;;;;;5060559;28;20226;-96
2021/12/11 07:01:11;;;;;;;10.63;8.27;;;;;;;;;;5056610;28;20221;-94
2021/12/11 07:03:40;;;;;;;22.43;17.07;;;;;;;;;;5056048;28;20193;-94
2021/12/11 07:06:08;;;;;;;9.27;7.53;;;;;;;;;;5055799;28;20213;-95
2021/12/11 07:08:37;;;;;;;11.23;8.47;;;;;;;;;;5055777;28;20285;-95
2021/12/11 07:11:04;;;;;;;11.47;6.37;;;;;;;;;;5056847;28;20724;-94
2021/12/11 07:13:32;;;;;;;10.33;8.47;;;;;;;;;;5057047;28;20214;-95
2021/12/11 07:15:59;;;;;;;6.33;5.50;;;;;;;;;;5057827;28;20194;-96
2021/12/11 07:18:29;;;;;;;2.00;1.73;;;;;;;;;;5057365;28;20225;-94
2021/12/11 07:20:57;;;;;;;7.97;3.60;;;;;;;;;;5058449;28;20280;-94
2021/12/11 07:23:24;;;;;;;2.80;2.53;;;;;;;;;;5057718;28;20206;-95
2021/12/11 07:25:54;;;;;;;5.10;4.10;;;;;;;;;;5055850;28;20197;-95
2021/12/11 07:28:22;;;;;;;23.60;19.40;;;;;;;;;;5057489;28;20236;-95
2021/12/11 07:30:51;;;;;;;20.77;18.53;;;;;;;;;;5057421;28;20213;-95
2021/12/11 07:33:20;;;;;;;28.30;25.00;;;;;;;;;;5056720;28;20279;-94
2021/12/11 07:35:50;;;;;;;8.87;6.93;;;;;;;;;;5055815;28;20285;-95
2021/12/11 07:38:18;;;;;;;31.77;21.73;;;;;;;;;;5037460;28;20761;-95
2021/12/11 07:40:51;;;;;;;23.47;16.00;;;;;;;;;;5038052;28;20272;-94
2021/12/11 07:43:20;;;;;;;11.07;8.70;;;;;;;;;;5036755;28;20684;-95
2021/12/11 07:45:49;;;;;;;17.60;13.13;;;;;;;;;;5035939;28;20209;-95
2021/12/11 07:48:16;;;;;;;4.80;4.40;;;;;;;;;;5036413;28;20198;-96
2021/12/11 07:50:45;;;;;;;4.77;4.27;;;;;;;;;;5035919;28;20558;-95
2021/12/11 07:53:15;;;;;;;9.43;7.73;;;;;;;;;;5035400;28;20276;-95
2021/12/11 07:55:43;;;;;;;19.70;10.47;;;;;;;;;;5035183;28;20198;-96
2021/12/11 07:58:11;;;;;;;16.83;13.00;;;;;;;;;;5037396;28;20309;-95
2021/12/11 08:00:40;;;;;;;10.17;8.33;;;;;;;;;;5035937;28;20252;-95
2021/12/11 08:03:09;;;;;;;6.23;5.63;;;;;;;;;;5034517;28;20190;-95
2021/12/11 08:05:37;;;;;;;7.07;4.50;;;;;;;;;;5034422;28;20270;-96
2021/12/11 08:08:06;;;;;;;13.10;7.47;;;;;;;;;;5034395;28;20221;-95
2021/12/11 08:10:36;;;;;;;22.50;13.90;;;;;;;;;;5034841;28;20261;-95
2021/12/11 08:13:05;;;;;;;26.20;13.37;;;;;;;;;;5043577;28;20205;-95
2021/12/11 08:15:34;;;;;;;13.43;7.77;;;;;;;;;;5054449;28;20224;-95
2021/12/11 08:18:02;;;;;;;20.53;10.00;;;;;;;;;;5053653;28;20218;-95
2021/12/11 08:20:33;;;;;;;16.50;12.27;;;;;;;;;;5053662;28;20263;-95
2021/12/11 08:23:01;;;;;;;8.23;6.30;;;;;;;;;;5054162;28;20189;-95
2021/12/11 08:25:31;;;;;;;8.43;7.47;;;;;;;;;;5054068;28;20201;-95
2021/12/11 08:28:00;;;;;;;20.90;12.67;;;;;;;;;;5053926;28;20284;-94
2021/12/11 08:30:30;;;;;;;15.20;11.17;;;;;;;;;;5046053;28;20596;-95
2021/12/11 08:32:57;;;;;;;9.53;7.23;;;;;;;;;;5053899;28;20214;-95
2021/12/11 08:35:25;;;;;;;14.93;9.77;;;;;;;;;;5053844;28;20197;-95
2021/12/11 08:37:53;;;;;;;13.63;9.53;;;;;;;;;;5053612;28;20280;-95
2021/12/11 08:40:29;;;;;;;11.17;9.30;;;;;;;;;;5053567;28;20198;-95
2021/12/11 08:43:00;;;;;;;21.33;14.50;;;;;;;;;;5053646;28;20244;-95
2021/12/11 08:45:43;;;;;;;20.13;14.13;;;;;;;;;;5046043;28;20353;-95
2021/12/11 08:48:12;;;;;;;17.97;11.93;;;;;;;;;;5053691;28;20201;-94
2021/12/11 08:50:40;;;;;;;20.87;13.93;;;;;;;;;;5053725;28;20194;-95
2021/12/11 08:53:07;;;;;;;9.67;7.77;;;;;;;;;;5053597;28;20205;-96
2021/12/11 08:55:38;;;;;;;7.80;6.67;;;;;;;;;;5053495;28;20190;-95
2021/12/11 08:58:09;;;;;;;27.40;11.87;;;;;;;;;;5053463;28;20232;-95
2021/12/11 09:00:40;;;;;;;20.80;13.60;;;;;;;;;;5053275;28;20186;-95
2021/12/11 09:03:14;;;;;;;23.47;17.37;;;;;;;;;;5053419;28;20197;-95
2021/12/11 09:05:45;;;;;;;14.93;9.40;;;;;;;;;;5053466;28;20276;-95
2021/12/11 09:08:16;;;;;;;12.73;6.00;;;;;;;;;;5053491;28;20186;-95
2021/12/11 09:10:48;;;;;;;9.87;7.63;;;;;;;;;;5053391;28;20194;-95
2021/12/11 09:13:20;;;;;;;12.07;6.30;;;;;;;;;;5052818;28;20186;-95
2021/12/11 09:15:51;;;;;;;9.87;5.60;;;;;;;;;;5053385;28;20285;-96
2021/12/11 09:18:21;;;;;;;5.67;3.67;;;;;;;;;;5053382;28;20218;-96
2021/12/11 09:20:53;;;;;;;4.03;3.20;;;;;;;;;;5052892;28;20217;-96
2021/12/11 09:23:25;;;;;;;3.43;2.67;;;;;;;;;;5053334;28;20196;-94
2021/12/11 09:25:55;;;;;;;6.53;4.33;;;;;;;;;;5053183;28;20204;-94
2021/12/11 09:28:27;;;;;;;6.50;3.30;;;;;;;;;;5052893;28;20281;-95
2021/12/11 09:31:00;;;;;;;10.60;7.27;;;;;;;;;;5052740;28;20231;-95
2021/12/11 09:33:30;;;;;;;8.37;5.67;;;;;;;;;;5052814;28;20190;-95
2021/12/11 09:36:00;;;;;;;9.03;5.07;;;;;;;;;;5052981;28;20288;-95
2021/12/11 09:38:32;;;;;;;11.70;7.23;;;;;;;;;;5045027;28;20230;-95
2021/12/11 09:40:59;;;;;;;8.37;4.50;;;;;;;;;;5052423;28;20182;-95
2021/12/11 09:43:37;;;;;;;12.73;8.37;;;;;;;;;;5052465;28;20234;-95
2021/12/11 09:46:06;;;;;;;9.63;5.80;;;;;;;;;;5053246;28;20201;-96
2021/12/11 09:48:34;;;;;;;19.37;9.83;;;;;;;;;;5054751;28;20248;-94
2021/12/11 09:51:08;;;;;;;18.30;10.33;;;;;;;;;;5052590;28;20197;-95
2021/12/11 09:53:38;;;;;;;9.17;5.57;;;;;;;;;;5052648;28;20202;-95
2021/12/11 09:56:09;;;;;;;9.97;5.33;;;;;;;;;;5052804;28;20198;-93
2021/12/11 09:58:39;;;;;;;7.53;4.30;;;;;;;;;;5052908;28;20202;-94
2021/12/11 10:01:12;;;;;;;8.70;6.50;;;;;;;;;;5052545;28;20197;-94
2021/12/11 10:03:45;;;;;;;6.80;4.20;;;;;;;;;;5052692;28;20206;-94
2021/12/11 10:06:27;;;;;;;9.60;5.97;;;;;;;;;;5052734;28;20208;-94
2021/12/11 10:09:09;;;;;;;11.27;8.53;;;;;;;;;;5052646;28;20202;-94
2021/12/11 10:11:37;;;;;;;9.27;5.73;;;;;;;;;;5056359;28;20208;-96
2021/12/11 10:14:13;;;;;;;8.30;5.77;;;;;;;;;;5053357;28;20201;-96
2021/12/11 10:16:44;;;;;;;13.13;6.97;;;;;;;;;;5052637;28;20670;-95
2021/12/11 10:19:13;;;;;;;11.03;5.13;;;;;;;;;;5052452;28;20221;-96
2021/12/11 10:21:44;;;;;;;5.40;3.97;;;;;;;;;;5052712;28;20202;-93
2021/12/11 10:24:16;;;;;;;10.00;6.27;;;;;;;;;;5053000;28;20281;-95
2021/12/11 10:26:44;;;;;;;9.63;6.00;;;;;;;;;;5052343;28;20742;-96
2021/12/11 10:29:19;;;;;;;8.73;5.40;;;;;;;;;;5052366;28;20621;-96
2021/12/11 10:31:49;;;;;;;5.10;3.70;;;;;;;;;;5052505;28;20288;-95
2021/12/11 10:34:19;;;;;;;13.53;8.90;;;;;;;;;;5052751;28;20212;-94
2021/12/11 10:36:52;;;;;;;5.67;3.70;;;;;;;;;;5052958;28;20226;-95
2021/12/11 10:39:22;;;;;;;8.80;3.90;;;;;;;;;;5052719;28;20206;-95
2021/12/11 10:41:56;;;;;;;7.07;6.00;;;;;;;;;;5052449;28;20785;-95
2021/12/11 10:44:27;;;;;;;6.40;3.37;;;;;;;;;;5059492;28;20642;-96
2021/12/11 10:46:56;;;;;;;6.53;2.27;;;;;;;;;;5058686;28;20654;-93
2021/12/11 10:49:24;;;;;;;4.43;3.30;;;;;;;;;;5057957;28;20256;-95
2021/12/11 10:51:57;;;;;;;4.80;3.23;;;;;;;;;;5055982;28;20246;-95
2021/12/11 10:54:26;;;;;;;4.17;2.67;;;;;;;;;;5055914;28;20565;-95
2021/12/11 10:56:54;;;;;;;5.50;2.33;;;;;;;;;;5055623;28;20222;-95
2021/12/11 10:59:28;;;;;;;4.93;2.40;;;;;;;;;;5055247;28;20225;-96
2021/12/11 11:02:10;;;;;;;6.90;3.23;;;;;;;;;;5055777;28;20252;-95
2021/12/11 11:04:41;;;;;;;5.60;2.60;;;;;;;;;;5055050;28;20178;-94
2021/12/11 11:07:12;;;;;;;7.83;2.53;;;;;;;;;;5055592;28;20202;-95
2021/12/11 11:09:40;;;;;;;6.03;4.00;;;;;;;;;;5055143;28;20657;-95
2021/12/11 11:12:11;;;;;;;6.53;2.90;;;;;;;;;;5056011;28;20212;-96
2021/12/11 11:14:41;;;;;;;3.17;2.90;;;;;;;;;;5056015;28;20205;-96
2021/12/11 11:17:10;;;;;;;4.57;2.20;;;;;;;;;;5055630;28;20202;-96
2021/12/11 11:19:40;;;;;;;3.43;2.23;;;;;;;;;;5055658;28;20279;-95
2021/12/11 11:22:10;;;;;;;4.03;2.87;;;;;;;;;;5055429;28;20237;-95
2021/12/11 11:24:40;;;;;;;4.73;4.20;;;;;;;;;;5054837;28;20228;-95
2021/12/11 11:27:08;;;;;;;5.57;3.43;;;;;;;;;;5055065;28;20213;-95
2021/12/11 11:29:37;;;;;;;2.77;2.03;;;;;;;;;;5055036;28;20194;-95
2021/12/11 11:32:13;;;;;;;4.27;2.30;;;;;;;;;;5054992;28;20200;-95
2021/12/11 11:34:42;;;;;;;3.90;2.50;;;;;;;;;;5054950;28;20193;-96
2021/12/11 11:37:11;;;;;;;5.03;2.37;;;;;;;;;;5055003;28;20204;-96
2021/12/11 11:39:42;;;;;;;4.83;4.33;;;;;;;;;;5054939;28;20259;-95
2021/12/11 11:42:12;;;;;;;6.17;2.70;;;;;;;;;;5054894;28;20250;-95
2021/12/11 11:44:41;;;;;;;3.63;2.33;;;;;;;;;;5055203;28;20205;-95
2021/12/11 11:47:12;;;;;;;4.77;3.73;;;;;;;;;;5054389;28;20206;-94
2021/12/11 11:49:42;;;;;;;5.70;3.00;;;;;;;;;;5054740;28;20208;-94
2021/12/11 11:52:12;;;;;;;2.90;2.50;;;;;;;;;;5055489;28;20272;-96
2021/12/11 11:54:42;;;;;;;3.10;1.90;;;;;;;;;;5063856;28;20216;-96
2021/12/11 11:57:22;;;;;;;5.50;3.10;;;;;;;;;;5065958;28;20632;-96
2021/12/11 11:59:52;;;;;;;6.73;5.80;;;;;;;;;;5064474;28;20678;-96
2021/12/11 12:02:24;;;;;;;2.33;1.87;;;;;;;;;;5058985;28;20200;-96
2021/12/11 12:04:53;;;;;;;7.87;7.03;;;;;;;;;;5057617;28;20251;-96
2021/12/11 12:07:26;;;;;;;7.13;5.07;;;;;;;;;;5057578;28;20260;-96
2021/12/11 12:09:57;;;;;;;7.30;6.13;;;;;;;;;;5057636;28;20271;-96
2021/12/11 12:12:28;;;;;;;4.67;2.17;;;;;;;;;;5055828;28;20194;-95
2021/12/11 12:14:57;;;;;;;7.53;6.37;;;;;;;;;;5054866;28;20198;-95
2021/12/11 12:17:30;;;;;;;6.03;5.13;;;;;;;;;;5060601;28;20205;-96
2021/12/11 12:19:59;;;;;;;5.73;4.27;;;;;;;;;;5060802;28;20289;-96
2021/12/11 12:22:28;;;;;;;6.13;3.83;;;;;;;;;;5058656;28;20652;-96
2021/12/11 12:24:57;;;;;;;2.90;2.20;;;;;;;;;;5055303;28;20682;-96
2021/12/11 12:27:27;;;;;;;3.60;2.63;;;;;;;;;;5054969;28;20277;-96
2021/12/11 12:29:58;;;;;;;6.53;4.53;;;;;;;;;;5054485;28;20263;-96
2021/12/11 12:32:30;;;;;;;4.33;3.93;;;;;;;;;;5054512;28;20212;-96
2021/12/11 12:34:59;;;;;;;4.20;3.70;;;;;;;;;;5054119;28;20658;-96
2021/12/11 12:37:27;;;;;;;3.40;2.97;;;;;;;;;;5054142;28;20197;-95
2021/12/11 12:39:58;;;;;;;2.97;2.47;;;;;;;;;;5053742;28;20222;-96
2021/12/11 12:42:32;;;;;;;3.80;2.60;;;;;;;;;;5045604;28;20761;-96
2021/12/11 12:45:03;;;;;;;4.10;3.60;;;;;;;;;;5053838;28;20224;-96
2021/12/11 12:47:35;;;;;;;2.87;2.20;;;;;;;;;;5045945;28;20322;-95
2021/12/11 12:50:07;;;;;;;5.10;3.87;;;;;;;;;;5053498;28;20271;-96
2021/12/11 12:52:37;;;;;;;6.90;5.53;;;;;;;;;;5053454;28;20202;-96
2021/12/11 12:55:08;;;;;;;4.37;3.97;;;;;;;;;;5053630;28;20218;-96
2021/12/11 12:57:39;;;;;;;6.60;4.63;;;;;;;;;;5055158;28;20634;-95
2021/12/11 13:00:12;;;;;;;3.77;2.33;;;;;;;;;;5053315;28;20271;-95
2021/12/11 13:02:42;;;;;;;5.57;3.33;;;;;;;;;;5053463;28;20228;-94
2021/12/11 13:05:15;;;;;;;4.57;2.70;;;;;;;;;;5053267;28;20632;-95
2021/12/11 13:07:43;;;;;;;4.33;3.60;;;;;;;;;;5053124;28;20205;-94
2021/12/11 13:10:13;;;;;;;3.87;3.20;;;;;;;;;;5053002;28;20251;-94
2021/12/11 13:12:43;;;;;;;6.77;2.03;;;;;;;;;;5053196;28;20721;-94
2021/12/11 13:15:14;;;;;;;2.47;1.90;;;;;;;;;;5053933;28;20190;-93
2021/12/11 13:17:46;;;;;;;2.80;1.67;;;;;;;;;;5071227;28;20205;-96
2021/12/11 13:20:19;;;;;;;3.33;1.77;;;;;;;;;;5074250;28;20227;-95
2021/12/11 13:22:47;;;;;;;2.10;1.40;;;;;;;;;;5073558;28;20193;-96
2021/12/11 13:25:19;;;;;;;2.00;1.17;;;;;;;;;;5072680;28;20247;-96
2021/12/11 13:27:48;;;;;;;2.47;1.13;;;;;;;;;;5069334;28;20217;-96
2021/12/11 13:30:23;;;;;;;4.77;1.63;;;;;;;;;;5053373;28;20200;-94
2021/12/11 13:32:52;;;;;;;5.40;2.77;;;;;;;;;;5053792;28;20280;-95
2021/12/11 13:35:21;;;;;;;6.03;3.27;;;;;;;;;;5053656;28;20229;-95
2021/12/11 13:37:52;;;;;;;3.47;2.50;;;;;;;;;;5056057;28;20205;-96
2021/12/11 13:40:22;;;;;;;2.97;2.63;;;;;;;;;;5056539;28;20304;-96
2021/12/11 13:42:50;;;;;;;1.90;1.50;;;;;;;;;;5053717;28;20691;-95
2021/12/11 13:45:20;;;;;;;5.53;2.80;;;;;;;;;;5057924;28;20210;-96
2021/12/11 13:47:48;;;;;;;4.20;2.47;;;;;;;;;;5054668;28;20197;-96
2021/12/11 13:50:20;;;;;;;2.33;1.30;;;;;;;;;;5060138;28;20201;-96
2021/12/11 13:52:48;;;;;;;1.60;0.97;;;;;;;;;;5056530;28;20193;-96
2021/12/11 13:55:16;;;;;;;6.03;1.73;;;;;;;;;;5053335;28;20235;-96
2021/12/11 13:57:44;;;;;;;5.30;1.67;;;;;;;;;;5052552;28;20232;-96
2021/12/11 14:00:16;;;;;;;2.83;1.77;;;;;;;;;;5044552;28;20338;-95
2021/12/11 14:02:44;;;;;;;1.67;1.27;;;;;;;;;;5053434;28;20197;-95
2021/12/11 14:05:12;;;;;;;3.53;1.53;;;;;;;;;;5053349;28;20784;-96
2021/12/11 14:07:41;;;;;;;3.63;1.77;;;;;;;;;;5052320;28;20210;-95
2021/12/11 14:10:19;;;;;;;3.83;1.77;;;;;;;;;;5052655;28;20198;-95
2021/12/11 14:12:47;;;;;;;3.90;3.13;;;;;;;;;;5038830;28;20671;-95
2021/12/11 14:15:16;;;;;;;14.43;9.53;;;;;;;;;;5045873;28;20205;-95
2021/12/11 14:17:44;;;;;;;4.90;3.53;;;;;;;;;;5060361;28;20677;-96
2021/12/11 14:20:12;;;;;;;19.70;17.67;;;;;;;;;;5076712;28;20741;-94
2021/12/11 14:22:41;;;;;;;3.23;2.17;;;;;;;;;;5076675;28;20197;-96
2021/12/11 14:25:10;;;;;;;2.77;2.10;;;;;;;;;;5076425;28;20283;-96
2021/12/11 14:27:38;;;;;;;4.20;1.90;;;;;;;;;;5076061;28;20207;-95
2021/12/11 14:30:08;;;;;;;5.80;2.60;;;;;;;;;;5076272;28;20679;-94
2021/12/11 14:32:39;;;;;;;7.50;4.47;;;;;;;;;;5076238;28;20315;-94
2021/12/11 14:35:08;;;;;;;3.53;3.23;;;;;;;;;;5077528;28;20207;-95
2021/12/11 14:37:35;;;;;;;2.67;1.87;;;;;;;;;;5076117;28;20193;-94
2021/12/11 14:40:07;;;;;;;4.53;3.20;;;;;;;;;;5075866;28;20675;-94
2021/12/11 14:42:34;;;;;;;7.50;4.27;;;;;;;;;;5075767;28;20380;-96
2021/12/11 14:45:11;;;;;;;15.57;11.57;;;;;;;;;;5076134;28;20258;-96
2021/12/11 14:47:38;;;;;;;13.50;9.20;;;;;;;;;;5076218;28;20200;-94
2021/12/11 14:50:08;;;;;;;15.07;11.87;;;;;;;;;;5067629;28;20197;-95
2021/12/11 14:52:35;;;;;;;7.57;5.57;;;;;;;;;;5060293;28;20204;-96
2021/12/11 14:55:10;;;;;;;18.80;12.70;;;;;;;;;;5060843;28;20285;-96
2021/12/11 14:57:38;;;;;;;4.30;3.13;;;;;;;;;;5058098;28;20201;-96
2021/12/11 15:00:11;;;;;;;2.70;2.00;;;;;;;;;;5060770;28;20665;-96
2021/12/11 15:02:41;;;;;;;5.23;2.53;;;;;;;;;;5064065;28;20205;-96